createdAt,value
2018-12-13T00:01:07.459Z,102598.04
2018-12-13T00:03:35.772Z,102594.71
2018-12-13T00:06:04.083Z,102597.09
2018-12-13T00:08:32.398Z,102599.72
2018-12-13T00:11:00.713Z,102595.96
2018-12-13T00:13:29.027Z,102594.38
2018-12-13T00:15:57.341Z,102597.42
2018-12-13T00:18:25.652Z,102594.73
2018-12-13T00:20:53.989Z,102592.13
2018-12-13T00:23:22.297Z,102590.27
2018-12-13T00:25:50.627Z,102586.92
2018-12-13T00:28:18.951Z,102589.83
2018-12-13T00:30:47.275Z,102592.16
2018-12-13T00:33:15.591Z,102589.23
2018-12-13T00:35:43.901Z,102589.28
2018-12-13T00:38:12.225Z,102589.00
2018-12-13T00:40:40.547Z,102589.73
2018-12-13T00:43:08.862Z,102589.63
2018-12-13T00:45:37.183Z,102592.14
2018-12-13T00:48:05.496Z,102594.83
2018-12-13T00:50:33.808Z,102591.92
2018-12-13T00:53:02.133Z,102591.08
2018-12-13T00:55:30.447Z,102588.47
2018-12-13T00:57:58.765Z,102583.69
2018-12-13T01:00:27.081Z,102587.80
2018-12-13T01:02:55.407Z,102585.38
2018-12-13T01:05:23.703Z,102586.22
2018-12-13T01:07:52.018Z,102587.88
2018-12-13T01:10:20.345Z,102584.77
2018-12-13T01:12:48.664Z,102583.14
2018-12-13T01:15:16.976Z,102582.83
2018-12-13T01:17:45.287Z,102578.52
2018-12-13T01:20:13.618Z,102582.83
2018-12-13T01:22:41.936Z,102579.30
2018-12-13T01:25:10.250Z,102578.82
2018-12-13T01:27:38.565Z,102581.75
2018-12-13T01:30:06.879Z,102583.85
2018-12-13T01:32:35.207Z,102583.53
2018-12-13T01:35:03.509Z,102587.33
2018-12-13T01:37:31.891Z,102590.99
2018-12-13T01:40:00.168Z,102585.98
2018-12-13T01:42:28.487Z,102584.02
2018-12-13T01:44:56.798Z,102583.59
2018-12-13T01:47:25.107Z,102589.17
2018-12-13T01:49:53.425Z,102594.11
2018-12-13T01:52:21.752Z,102595.02
2018-12-13T01:54:50.290Z,102591.60
2018-12-13T01:57:18.378Z,102592.02
2018-12-13T01:59:46.694Z,102586.71
2018-12-13T02:02:15.007Z,102580.17
2018-12-13T02:04:43.314Z,102583.09
2018-12-13T02:07:11.629Z,102581.36
2018-12-13T02:09:39.940Z,102584.45
2018-12-13T02:12:08.250Z,102589.13
2018-12-13T02:14:36.559Z,102589.57
2018-12-13T02:17:04.869Z,102586.90
2018-12-13T02:19:33.188Z,102584.39
2018-12-13T02:22:01.511Z,102585.08
2018-12-13T02:24:29.828Z,102585.33
2018-12-13T02:26:58.149Z,102577.20
2018-12-13T02:29:26.472Z,102577.84
2018-12-13T02:31:54.789Z,102578.47
2018-12-13T02:34:23.102Z,102574.20
2018-12-13T02:36:51.408Z,102577.31
2018-12-13T02:39:19.717Z,102581.48
2018-12-13T02:41:48.051Z,102582.96
2018-12-13T02:44:16.367Z,102584.09
2018-12-13T02:46:44.691Z,102582.61
2018-12-13T02:49:13.001Z,102580.53
2018-12-13T02:51:41.313Z,102576.17
2018-12-13T02:54:09.631Z,102568.63
2018-12-13T02:56:37.946Z,102575.38
2018-12-13T02:59:06.262Z,102569.03
2018-12-13T03:01:34.579Z,102566.91
2018-12-13T03:04:02.898Z,102564.66
2018-12-13T03:06:31.215Z,102567.81
2018-12-13T03:08:59.537Z,102566.77
2018-12-13T03:11:27.858Z,102563.27
2018-12-13T03:13:56.167Z,102563.02
2018-12-13T03:16:24.538Z,102556.09
2018-12-13T03:18:52.790Z,102561.67
2018-12-13T03:21:21.101Z,102558.12
2018-12-13T03:23:49.436Z,102552.23
2018-12-13T03:26:17.742Z,102552.05
2018-12-13T03:28:46.066Z,102544.13
2018-12-13T03:31:14.380Z,102546.74
2018-12-13T03:33:42.694Z,102540.60
2018-12-13T03:36:11.055Z,102538.37
2018-12-13T03:38:39.343Z,102535.55
2018-12-13T03:41:07.653Z,102535.84
2018-12-13T03:43:35.996Z,102535.77
2018-12-13T03:46:04.322Z,102535.52
2018-12-13T03:48:32.626Z,102539.44
2018-12-13T03:51:00.941Z,102539.26
2018-12-13T03:53:29.265Z,102541.36
2018-12-13T03:55:57.579Z,102544.92
2018-12-13T03:58:25.906Z,102544.86
2018-12-13T04:00:54.218Z,102539.95
2018-12-13T04:03:22.533Z,102540.38
2018-12-13T04:05:50.840Z,102541.73
2018-12-13T04:08:19.174Z,102536.73
2018-12-13T04:10:47.488Z,102540.11
2018-12-13T04:13:15.803Z,102536.48
2018-12-13T04:15:44.134Z,102530.52
2018-12-13T04:18:12.468Z,102534.02
2018-12-13T04:20:40.788Z,102536.17
2018-12-13T04:23:09.110Z,102536.08
2018-12-13T04:25:37.431Z,102532.36
2018-12-13T04:28:05.749Z,102537.58
2018-12-13T04:30:34.065Z,102537.36
2018-12-13T04:33:02.383Z,102536.67
2018-12-13T04:35:30.713Z,102536.88
2018-12-13T04:37:59.027Z,102534.98
2018-12-13T04:40:27.351Z,102538.90
2018-12-13T04:42:55.876Z,102533.74
2018-12-13T04:45:23.998Z,102529.64
2018-12-13T04:47:52.327Z,102526.47
2018-12-13T04:50:20.661Z,102527.66
2018-12-13T04:52:48.975Z,102525.80
2018-12-13T04:55:17.295Z,102527.55
2018-12-13T04:57:45.608Z,102524.36
2018-12-13T05:00:13.917Z,102527.14
2018-12-13T05:02:42.238Z,102524.47
2018-12-13T05:05:10.574Z,102523.58
2018-12-13T05:07:41.762Z,102524.84
2018-12-13T05:10:07.215Z,102520.08
2018-12-13T05:12:35.536Z,102520.63
2018-12-13T05:15:03.859Z,102518.14
2018-12-13T05:17:32.200Z,102515.16
2018-12-13T05:20:00.531Z,102517.59
2018-12-13T05:22:28.860Z,102516.30
2018-12-13T05:24:57.191Z,102517.16
2018-12-13T05:27:25.855Z,102519.84
2018-12-13T05:29:54.183Z,102524.98
2018-12-13T05:32:22.507Z,102521.22
2018-12-13T05:34:50.819Z,102519.69
2018-12-13T05:37:19.132Z,102516.00
2018-12-13T05:39:47.458Z,102517.55
2018-12-13T05:42:15.806Z,102518.88
2018-12-13T05:44:44.118Z,102517.22
2018-12-13T05:47:12.459Z,102517.70
2018-12-13T05:49:40.810Z,102517.30
2018-12-13T05:52:09.115Z,102515.98
2018-12-13T05:54:37.444Z,102517.83
2018-12-13T05:57:05.774Z,102524.16
2018-12-13T05:59:34.085Z,102526.39
2018-12-13T06:02:02.401Z,102530.11
2018-12-13T06:04:30.725Z,102524.13
2018-12-13T06:06:59.031Z,102526.09
2018-12-13T06:09:27.345Z,102525.84
2018-12-13T06:11:55.668Z,102519.08
2018-12-13T06:14:23.994Z,102522.23
2018-12-13T06:16:52.326Z,102520.88
2018-12-13T06:19:26.584Z,102520.69
2018-12-13T06:21:48.979Z,102518.19
2018-12-13T06:24:17.301Z,102517.00
2018-12-13T06:26:45.610Z,102520.09
2018-12-13T06:29:14.226Z,102525.56
2018-12-13T06:31:42.541Z,102523.47
2018-12-13T06:34:11.128Z,102519.28
2018-12-13T06:36:39.457Z,102512.50
2018-12-13T06:39:07.784Z,102516.91
2018-12-13T06:41:36.103Z,102512.66
2018-12-13T06:44:04.413Z,102517.74
2018-12-13T06:46:32.730Z,102521.70
2018-12-13T06:49:01.101Z,102517.92
2018-12-13T06:51:29.415Z,102522.22
2018-12-13T06:53:57.756Z,102520.48
2018-12-13T06:56:26.066Z,102519.03
2018-12-13T06:58:54.977Z,102514.75
2018-12-13T07:01:23.292Z,102516.74
2018-12-13T07:03:51.608Z,102519.13
2018-12-13T07:06:19.915Z,102514.02
2018-12-13T07:08:54.004Z,102506.52
2018-12-13T07:11:22.327Z,102510.61
2018-12-13T07:13:50.644Z,102511.51
2018-12-13T07:16:18.966Z,102511.03
2018-12-13T07:18:47.283Z,102511.09
2018-12-13T07:21:15.604Z,102512.50
2018-12-13T07:23:43.922Z,102511.83
2018-12-13T07:26:12.248Z,102508.65
2018-12-13T07:28:40.577Z,102508.54
2018-12-13T07:31:08.894Z,102507.80
2018-12-13T07:33:37.212Z,102510.11
2018-12-13T07:36:05.545Z,102513.20
2018-12-13T07:38:33.877Z,102518.77
2018-12-13T07:41:02.836Z,102521.86
2018-12-13T07:43:31.401Z,102525.22
2018-12-13T07:45:59.720Z,102523.34
2018-12-13T07:48:28.039Z,102522.77
2018-12-13T07:50:56.409Z,102521.81
2018-12-13T07:53:24.735Z,102521.87
2018-12-13T07:55:53.397Z,102524.21
2018-12-13T07:58:21.724Z,102519.09
2018-12-13T08:00:50.204Z,102526.27
2018-12-13T08:03:18.519Z,102526.45
2018-12-13T08:05:46.838Z,102527.14
2018-12-13T08:08:20.647Z,102526.98
2018-12-13T08:10:43.470Z,102523.98
2018-12-13T08:13:12.302Z,102531.33
2018-12-13T08:15:40.622Z,102530.58
2018-12-13T08:18:08.968Z,102527.44
2018-12-13T08:20:37.281Z,102525.97
2018-12-13T08:23:05.597Z,102520.28
2018-12-13T08:25:33.934Z,102522.98
2018-12-13T08:28:02.248Z,102521.28
2018-12-13T08:30:30.563Z,102518.94
2018-12-13T08:32:58.944Z,102522.94
2018-12-13T08:35:27.278Z,102527.44
2018-12-13T08:37:55.596Z,102521.13
2018-12-13T08:40:23.904Z,102523.05
2018-12-13T08:42:52.220Z,102522.22
2018-12-13T08:45:20.532Z,102516.72
2018-12-13T08:47:48.856Z,102524.90
2018-12-13T08:50:17.463Z,102524.09
2018-12-13T08:52:46.514Z,102523.33
2018-12-13T08:55:14.831Z,102520.20
2018-12-13T08:57:43.160Z,102523.28
2018-12-13T09:00:11.485Z,102526.30
2018-12-13T09:02:39.796Z,102525.70
2018-12-13T09:05:08.125Z,102524.99
2018-12-13T09:07:36.458Z,102524.27
2018-12-13T09:10:04.782Z,102522.74
2018-12-13T09:12:33.096Z,102525.42
2018-12-13T09:15:01.409Z,102525.53
2018-12-13T09:17:29.731Z,102521.95
2018-12-13T09:19:58.044Z,102518.55
2018-12-13T09:22:26.367Z,102516.84
2018-12-13T09:24:54.680Z,102514.72
2018-12-13T09:27:23.005Z,102513.00
2018-12-13T09:29:51.320Z,102508.60
2018-12-13T09:32:19.652Z,102507.00
2018-12-13T09:34:47.957Z,102500.73
2018-12-13T09:37:16.277Z,102497.23
2018-12-13T09:39:44.612Z,102498.79
2018-12-13T09:42:13.854Z,102498.36
2018-12-13T09:44:42.182Z,102495.77
2018-12-13T09:47:10.790Z,102494.31
2018-12-13T09:49:39.128Z,102496.15
2018-12-13T09:52:07.786Z,102492.50
2018-12-13T09:54:36.118Z,102491.37
2018-12-13T09:57:04.428Z,102489.59
2018-12-13T09:59:32.741Z,102488.77
2018-12-13T10:02:01.062Z,102485.42
2018-12-13T10:04:29.384Z,102482.14
2018-12-13T10:06:57.707Z,102481.56
2018-12-13T10:09:26.017Z,102485.36
2018-12-13T10:11:54.343Z,102482.38
2018-12-13T10:14:23.065Z,102481.95
2018-12-13T10:16:51.513Z,102482.73
2018-12-13T10:19:19.830Z,102483.17
2018-12-13T10:21:48.159Z,102485.92
2018-12-13T10:24:16.475Z,102478.20
2018-12-13T10:26:44.791Z,102479.41
2018-12-13T10:29:13.119Z,102480.02
2018-12-13T10:31:41.687Z,102474.16
2018-12-13T10:34:10.001Z,102470.86
2018-12-13T10:36:38.330Z,102468.20
2018-12-13T10:39:06.656Z,102470.92
2018-12-13T10:41:34.974Z,102463.55
2018-12-13T10:44:03.304Z,102461.20
2018-12-13T10:46:31.621Z,102461.98
2018-12-13T10:48:59.938Z,102465.19
2018-12-13T10:51:28.268Z,102465.80
2018-12-13T10:53:56.599Z,102463.24
2018-12-13T10:56:24.937Z,102463.91
2018-12-13T10:58:53.254Z,102462.04
2018-12-13T11:01:27.119Z,102460.54
2018-12-13T11:03:56.012Z,102454.80
2018-12-13T11:06:24.336Z,102457.52
2018-12-13T11:08:52.657Z,102461.09
2018-12-13T11:11:20.975Z,102455.73
2018-12-13T11:13:49.577Z,102452.03
2018-12-13T11:16:17.904Z,102455.13
2018-12-13T11:18:46.220Z,102455.70
2018-12-13T11:21:17.504Z,102451.08
2018-12-13T11:23:42.861Z,102452.81
2018-12-13T11:26:11.187Z,102448.66
2018-12-13T11:28:45.271Z,102446.77
2018-12-13T11:31:13.848Z,102449.00
2018-12-13T11:33:42.166Z,102450.13
2018-12-13T11:36:10.486Z,102450.44
2018-12-13T11:38:38.806Z,102446.30
2018-12-13T11:41:07.117Z,102445.14
2018-12-13T11:43:35.442Z,102442.69
2018-12-13T11:46:03.758Z,102443.83
2018-12-13T11:48:32.093Z,102448.39
2018-12-13T11:51:00.416Z,102451.65
2018-12-13T11:53:28.743Z,102444.61
2018-12-13T11:55:57.057Z,102440.96
2018-12-13T11:58:25.485Z,102441.48
2018-12-13T12:00:53.799Z,102441.64
2018-12-13T12:03:22.430Z,102442.74
2018-12-13T12:05:50.744Z,102439.23
2018-12-13T12:08:19.394Z,102441.02
2018-12-13T12:10:47.727Z,102436.75
2018-12-13T12:13:16.164Z,102444.09
2018-12-13T12:15:44.501Z,102449.74
2018-12-13T12:18:13.114Z,102448.81
2018-12-13T12:20:41.431Z,102444.80
2018-12-13T12:23:09.761Z,102443.20
2018-12-13T12:25:38.074Z,102446.96
2018-12-13T12:28:06.400Z,102448.39
2018-12-13T12:30:34.717Z,102441.39
2018-12-13T12:33:03.039Z,102439.64
2018-12-13T12:35:31.373Z,102435.82
2018-12-13T12:37:59.678Z,102437.69
2018-12-13T12:40:27.995Z,102433.29
2018-12-13T12:42:56.611Z,102439.24
2018-12-13T12:45:25.138Z,102435.72
2018-12-13T12:47:53.511Z,102435.84
2018-12-13T12:50:21.828Z,102436.34
2018-12-13T12:52:50.450Z,102433.91
2018-12-13T12:55:18.768Z,102434.50
2018-12-13T12:57:47.098Z,102435.55
2018-12-13T13:00:15.925Z,102436.80
2018-12-13T13:02:45.605Z,102436.69
2018-12-13T13:05:12.593Z,102438.57
2018-12-13T13:07:40.919Z,102440.52
2018-12-13T13:10:09.539Z,102439.89
2018-12-13T13:12:37.624Z,102435.85
2018-12-13T13:15:05.957Z,102438.55
2018-12-13T13:17:37.368Z,102437.46
2018-12-13T13:20:05.794Z,102444.49
2018-12-13T13:22:34.101Z,102446.23
2018-12-13T13:25:03.912Z,102451.67
2018-12-13T13:27:32.013Z,102451.58
2018-12-13T13:30:00.183Z,102455.28
2018-12-13T13:32:28.653Z,102452.19
2018-12-13T13:34:56.984Z,102458.33
2018-12-13T13:37:25.320Z,102460.06
2018-12-13T13:39:53.651Z,102461.16
2018-12-13T13:42:21.958Z,102459.39
2018-12-13T13:44:50.278Z,102462.55
2018-12-13T13:47:18.601Z,102454.89
2018-12-13T13:49:46.942Z,102459.52
2018-12-13T13:52:15.276Z,102458.42
2018-12-13T13:54:43.598Z,102457.45
2018-12-13T13:57:11.918Z,102459.75
2018-12-13T13:59:40.987Z,102458.97
2018-12-13T14:02:09.323Z,102457.50
2018-12-13T14:04:37.663Z,102457.46
2018-12-13T14:07:05.982Z,102459.09
2018-12-13T14:09:37.874Z,102461.23
2018-12-13T14:12:03.002Z,102461.48
2018-12-13T14:14:31.616Z,102459.02
2018-12-13T14:17:00.109Z,102459.66
2018-12-13T14:19:29.446Z,102458.72
2018-12-13T14:21:57.546Z,102454.34
2018-12-13T14:24:25.865Z,102457.63
2018-12-13T14:26:54.201Z,102453.82
2018-12-13T14:29:22.545Z,102454.98
2018-12-13T14:31:50.882Z,102455.69
2018-12-13T14:34:19.484Z,102461.77
2018-12-13T14:36:47.814Z,102460.16
2018-12-13T14:39:16.159Z,102459.84
2018-12-13T14:41:44.509Z,102465.45
2018-12-13T14:44:12.831Z,102463.55
2018-12-13T14:46:41.183Z,102462.41
2018-12-13T14:49:09.502Z,102454.02
2018-12-13T14:51:38.135Z,102456.52
2018-12-13T14:54:06.497Z,102456.48
2018-12-13T14:56:35.745Z,102456.39
2018-12-13T14:59:04.086Z,102453.80
2018-12-13T15:01:32.417Z,102452.48
2018-12-13T15:04:00.926Z,102453.78
2018-12-13T15:06:29.283Z,102453.89
2018-12-13T15:08:57.612Z,102455.88
2018-12-13T15:11:25.951Z,102449.52
2018-12-13T15:13:54.280Z,102447.65
2018-12-13T15:16:22.633Z,102446.02
2018-12-13T15:18:50.974Z,102449.75
2018-12-13T15:21:19.330Z,102444.11
2018-12-13T15:23:47.666Z,102445.17
2018-12-13T15:26:16.022Z,102447.71
2018-12-13T15:28:44.407Z,102446.69
2018-12-13T15:31:12.921Z,102444.63
2018-12-13T15:33:41.442Z,102448.18
2018-12-13T15:36:09.766Z,102444.03
2018-12-13T15:38:38.404Z,102445.08
2018-12-13T15:41:07.535Z,102444.74
2018-12-13T15:43:35.872Z,102446.28
2018-12-13T15:46:04.212Z,102444.27
2018-12-13T15:48:32.548Z,102446.17
2018-12-13T15:51:00.875Z,102446.53
2018-12-13T15:53:29.204Z,102446.80
2018-12-13T15:55:57.560Z,102454.80
2018-12-13T15:58:26.163Z,102453.02
2018-12-13T16:00:54.484Z,102451.14
2018-12-13T16:03:22.823Z,102446.27
2018-12-13T16:05:51.192Z,102446.23
2018-12-13T16:08:19.529Z,102447.56
2018-12-13T16:10:47.945Z,102449.72
2018-12-13T16:13:16.338Z,102446.24
2018-12-13T16:15:44.611Z,102447.32
2018-12-13T16:18:13.216Z,102449.25
2018-12-13T16:20:41.900Z,102450.72
2018-12-13T16:23:10.223Z,102455.64
2018-12-13T16:25:38.870Z,102456.96
2018-12-13T16:28:07.867Z,102455.62
2018-12-13T16:30:36.211Z,102457.03
2018-12-13T16:33:04.568Z,102452.06
2018-12-13T16:35:32.891Z,102452.03
2018-12-13T16:38:01.230Z,102447.48
2018-12-13T16:40:29.554Z,102452.91
2018-12-13T16:42:57.879Z,102453.58
2018-12-13T16:45:26.220Z,102455.98
2018-12-13T16:47:54.597Z,102461.84
2018-12-13T16:50:22.922Z,102458.24
2018-12-13T16:52:51.254Z,102461.29
2018-12-13T16:55:19.662Z,102459.88
2018-12-13T16:57:47.997Z,102464.09
2018-12-13T17:00:16.314Z,102461.50
2018-12-13T17:02:44.633Z,102459.28
2018-12-13T17:05:12.985Z,102461.73
2018-12-13T17:07:41.369Z,102462.79
2018-12-13T17:10:09.743Z,102462.36
2018-12-13T17:12:38.092Z,102458.70
2018-12-13T17:15:06.542Z,102466.47
2018-12-13T17:17:34.856Z,102467.14
2018-12-13T17:20:03.191Z,102468.73
2018-12-13T17:22:31.546Z,102472.51
2018-12-13T17:25:00.166Z,102470.61
2018-12-13T17:27:28.484Z,102469.58
2018-12-13T17:29:57.054Z,102473.39
2018-12-13T17:32:25.150Z,102477.19
2018-12-13T17:34:53.492Z,102479.30
2018-12-13T17:37:22.114Z,102481.92
2018-12-13T17:39:50.438Z,102482.58
2018-12-13T17:42:18.805Z,102492.47
2018-12-13T17:44:47.173Z,102491.16
2018-12-13T17:47:15.561Z,102492.58
2018-12-13T17:49:49.264Z,102494.67
2018-12-13T17:52:23.026Z,102501.52
2018-12-13T17:54:51.354Z,102500.59
2018-12-13T17:57:19.705Z,102504.47
2018-12-13T17:59:48.022Z,102499.73
2018-12-13T18:02:16.357Z,102505.13
2018-12-13T18:04:44.676Z,102511.36
2018-12-13T18:07:13.009Z,102510.63
2018-12-13T18:09:41.340Z,102512.49
2018-12-13T18:12:09.677Z,102517.86
2018-12-13T18:14:38.005Z,102511.99
2018-12-13T18:17:06.376Z,102511.69
2018-12-13T18:19:35.949Z,102518.13
2018-12-13T18:22:06.496Z,102520.06
2018-12-13T18:24:33.761Z,102520.11
2018-12-13T18:27:01.863Z,102517.39
2018-12-13T18:29:30.200Z,102520.19
2018-12-13T18:31:58.518Z,102522.59
2018-12-13T18:34:26.829Z,102520.80
2018-12-13T18:36:55.852Z,102519.96
2018-12-13T18:39:24.221Z,102524.34
2018-12-13T18:41:52.537Z,102521.45
2018-12-13T18:44:20.932Z,102525.52
2018-12-13T18:46:49.296Z,102525.78
2018-12-13T18:49:17.657Z,102529.11
2018-12-13T18:51:46.048Z,102524.61
2018-12-13T18:54:14.361Z,102531.02
2018-12-13T18:56:42.677Z,102528.53
2018-12-13T18:59:11.289Z,102524.53
2018-12-13T19:01:39.619Z,102529.23
2018-12-13T19:04:08.225Z,102529.39
2018-12-13T19:06:36.568Z,102531.58
2018-12-13T19:09:04.887Z,102532.91
2018-12-13T19:11:35.907Z,102535.20
2018-12-13T19:14:03.358Z,102536.81
2018-12-13T19:16:32.692Z,102540.08
2018-12-13T19:19:02.420Z,102539.54
2018-12-13T19:21:30.750Z,102540.34
2018-12-13T19:24:01.982Z,102537.10
2018-12-13T19:26:30.537Z,102538.18
2018-12-13T19:28:58.682Z,102537.23
2018-12-13T19:31:27.008Z,102538.17
2018-12-13T19:33:55.380Z,102541.66
2018-12-13T19:36:23.726Z,102543.05
2018-12-13T19:38:52.487Z,102548.08
2018-12-13T19:41:21.392Z,102551.52
2018-12-13T19:43:49.727Z,102559.17
2018-12-13T19:46:18.079Z,102555.52
2018-12-13T19:48:46.397Z,102559.38
2018-12-13T19:51:14.754Z,102559.73
2018-12-13T19:53:43.082Z,102557.11
2018-12-13T19:56:11.385Z,102562.00
2018-12-13T19:58:39.715Z,102561.94
2018-12-13T20:01:08.984Z,102565.98
2018-12-13T20:03:37.335Z,102567.21
2018-12-13T20:06:05.677Z,102565.31
2018-12-13T20:08:33.989Z,102572.30
2018-12-13T20:11:03.149Z,102568.45
2018-12-13T20:13:31.639Z,102571.37
2018-12-13T20:16:00.017Z,102577.01
2018-12-13T20:18:28.598Z,102573.44
2018-12-13T20:20:57.080Z,102576.14
2018-12-13T20:23:26.426Z,102582.44
2018-12-13T20:25:55.340Z,102581.80
2018-12-13T20:28:23.748Z,102580.29
2018-12-13T20:30:52.153Z,102584.55
2018-12-13T20:33:22.167Z,102585.19
2018-12-13T20:35:50.859Z,102587.17
2018-12-13T20:38:19.802Z,102587.58
2018-12-13T20:40:49.217Z,102592.77
2018-12-13T20:43:17.639Z,102589.12
2018-12-13T20:45:46.695Z,102593.33
2018-12-13T20:48:15.027Z,102592.72
2018-12-13T20:50:44.526Z,102598.81
2018-12-13T20:53:12.900Z,102596.11
2018-12-13T20:55:44.220Z,102589.58
2018-12-13T20:58:12.325Z,102589.21
2018-12-13T21:00:40.642Z,102593.02
2018-12-13T21:03:08.970Z,102589.97
2018-12-13T21:05:37.301Z,102593.49
2018-12-13T21:08:13.781Z,102591.48
2018-12-13T21:10:40.776Z,102595.62
2018-12-13T21:13:09.399Z,102595.38
2018-12-13T21:15:37.839Z,102595.87
2018-12-13T21:18:06.165Z,102597.28
2018-12-13T21:20:34.491Z,102595.39
2018-12-13T21:23:02.864Z,102593.20
2018-12-13T21:25:32.234Z,102589.97
2018-12-13T21:28:01.509Z,102585.97
2018-12-13T21:30:29.838Z,102580.97
2018-12-13T21:32:58.561Z,102582.06
2018-12-13T21:35:26.882Z,102577.62
2018-12-13T21:37:55.211Z,102583.39
2018-12-13T21:40:23.548Z,102577.16
2018-12-13T21:42:51.866Z,102575.91
2018-12-13T21:45:20.246Z,102579.45
2018-12-13T21:47:49.306Z,102578.94
2018-12-13T21:50:17.696Z,102584.81
2018-12-13T21:52:46.119Z,102585.09
2018-12-13T21:55:14.462Z,102594.31
2018-12-13T21:57:43.128Z,102588.26
2018-12-13T22:00:11.426Z,102581.72
2018-12-13T22:02:39.796Z,102578.50
2018-12-13T22:05:08.156Z,102580.23
2018-12-13T22:07:36.580Z,102581.77
2018-12-13T22:10:04.918Z,102581.23
2018-12-13T22:12:33.264Z,102588.54
2018-12-13T22:15:02.614Z,102587.36
2018-12-13T22:17:30.007Z,102579.39
2018-12-13T22:19:58.345Z,102576.88
2018-12-13T22:22:26.670Z,102570.64
2018-12-13T22:24:55.801Z,102573.36
2018-12-13T22:27:24.128Z,102574.16
2018-12-13T22:29:53.132Z,102580.84
2018-12-13T22:32:22.367Z,102575.70
2018-12-13T22:34:50.679Z,102579.53
2018-12-13T22:37:19.040Z,102582.86
2018-12-13T22:39:47.361Z,102584.09
2018-12-13T22:42:15.695Z,102585.03
2018-12-13T22:44:44.030Z,102584.33
2018-12-13T22:47:12.354Z,102584.36
2018-12-13T22:49:40.666Z,102589.79
2018-12-13T22:52:09.001Z,102589.42
2018-12-13T22:54:37.333Z,102588.01
2018-12-13T22:57:05.651Z,102590.66
2018-12-13T22:59:33.987Z,102592.14
2018-12-13T23:02:02.310Z,102591.47
2018-12-13T23:04:30.657Z,102591.31
2018-12-13T23:06:58.972Z,102594.09
2018-12-13T23:09:27.298Z,102592.57
2018-12-13T23:11:55.623Z,102594.89
2018-12-13T23:14:23.945Z,102599.19
2018-12-13T23:16:52.282Z,102598.27
2018-12-13T23:19:20.631Z,102595.77
2018-12-13T23:21:48.947Z,102597.41
2018-12-13T23:24:17.276Z,102599.71
2018-12-13T23:26:45.600Z,102596.69
2018-12-13T23:29:13.926Z,102592.27
2018-12-13T23:31:42.259Z,102593.66
2018-12-13T23:34:10.610Z,102600.48
2018-12-13T23:36:38.890Z,102605.50
2018-12-13T23:39:07.218Z,102608.17
2018-12-13T23:41:39.148Z,102611.23
2018-12-13T23:44:03.881Z,102614.27
2018-12-13T23:46:32.194Z,102615.46
2018-12-13T23:49:00.523Z,102613.91
2018-12-13T23:51:28.854Z,102614.09
2018-12-13T23:53:57.174Z,102613.41
2018-12-13T23:56:25.484Z,102613.36
2018-12-13T23:58:53.800Z,102618.42
